sensor_id;sensor_type;location;lat;lon;timestamp;P1;durP1;ratioP1;P2;durP2;ratioP2
23712;SDS011;12035;49.978;8.298;2023-12-14T00:01:51;14.77;;;7.72;;
23712;SDS011;12035;49.978;8.298;2023-12-14T00:06:48;12.00;;;6.00;;
23712;SDS011;12035;49.978;8.298;2023-12-14T00:11:45;8.25;;;4.28;;
23712;SDS011;12035;49.978;8.298;2023-12-14T00:16:43;23.70;;;11.95;;
23712;SDS011;12035;49.978;8.298;2023-12-14T00:21:40;24.25;;;11.57;;
23712;SDS011;12035;49.978;8.298;2023-12-14T00:26:37;10.43;;;6.05;;
23712;SDS011;12035;49.978;8.298;2023-12-14T00:31:34;9.80;;;5.15;;
23712;SDS011;12035;49.978;8.298;2023-12-14T00:36:33;9.02;;;3.92;;
23712;SDS011;12035;49.978;8.298;2023-12-14T00:41:30;6.20;;;3.10;;
23712;SDS011;12035;49.978;8.298;2023-12-14T00:46:27;6.30;;;3.40;;
23712;SDS011;12035;49.978;8.298;2023-12-14T00:51:24;9.40;;;4.15;;
23712;SDS011;12035;49.978;8.298;2023-12-14T00:56:22;9.02;;;4.47;;
23712;SDS011;12035;49.978;8.298;2023-12-14T01:01:19;10.50;;;5.45;;
23712;SDS011;12035;49.978;8.298;2023-12-14T01:06:16;15.70;;;7.20;;
23712;SDS011;12035;49.978;8.298;2023-12-14T01:11:13;14.00;;;6.88;;
23712;SDS011;12035;49.978;8.298;2023-12-14T01:16:11;11.85;;;6.40;;
23712;SDS011;12035;49.978;8.298;2023-12-14T01:21:08;4.65;;;2.70;;
23712;SDS011;12035;49.978;8.298;2023-12-14T01:26:06;4.25;;;2.53;;
23712;SDS011;12035;49.978;8.298;2023-12-14T01:31:03;6.10;;;2.95;;
23712;SDS011;12035;49.978;8.298;2023-12-14T01:36:02;6.95;;;3.25;;
23712;SDS011;12035;49.978;8.298;2023-12-14T01:40:59;6.78;;;4.30;;
23712;SDS011;12035;49.978;8.298;2023-12-14T01:45:57;8.93;;;5.32;;
23712;SDS011;12035;49.978;8.298;2023-12-14T01:50:54;8.60;;;6.13;;
23712;SDS011;12035;49.978;8.298;2023-12-14T01:55:52;6.05;;;3.67;;
23712;SDS011;12035;49.978;8.298;2023-12-14T02:00:51;6.75;;;2.83;;
23712;SDS011;12035;49.978;8.298;2023-12-14T02:05:54;3.45;;;2.10;;
23712;SDS011;12035;49.978;8.298;2023-12-14T02:10:54;4.28;;;2.08;;
23712;SDS011;12035;49.978;8.298;2023-12-14T02:15:51;3.97;;;2.05;;
23712;SDS011;12035;49.978;8.298;2023-12-14T02:20:48;7.10;;;3.70;;
23712;SDS011;12035;49.978;8.298;2023-12-14T02:25:47;14.10;;;6.95;;
23712;SDS011;12035;49.978;8.298;2023-12-14T02:30:44;8.65;;;3.88;;
23712;SDS011;12035;49.978;8.298;2023-12-14T02:35:42;5.30;;;2.30;;
23712;SDS011;12035;49.978;8.298;2023-12-14T02:40:39;4.68;;;2.00;;
23712;SDS011;12035;49.978;8.298;2023-12-14T02:45:37;4.25;;;1.90;;
23712;SDS011;12035;49.978;8.298;2023-12-14T02:50:34;4.32;;;1.88;;
23712;SDS011;12035;49.978;8.298;2023-12-14T02:55:31;4.30;;;1.63;;
23712;SDS011;12035;49.978;8.298;2023-12-14T03:00:28;4.00;;;1.50;;
23712;SDS011;12035;49.978;8.298;2023-12-14T03:05:27;4.40;;;1.50;;
23712;SDS011;12035;49.978;8.298;2023-12-14T03:10:24;2.72;;;1.48;;
23712;SDS011;12035;49.978;8.298;2023-12-14T03:15:21;3.50;;;1.10;;
23712;SDS011;12035;49.978;8.298;2023-12-14T03:20:18;3.80;;;1.25;;
23712;SDS011;12035;49.978;8.298;2023-12-14T03:25:17;4.20;;;1.40;;
23712;SDS011;12035;49.978;8.298;2023-12-14T03:30:14;2.85;;;1.20;;
23712;SDS011;12035;49.978;8.298;2023-12-14T03:35:11;3.70;;;1.75;;
23712;SDS011;12035;49.978;8.298;2023-12-14T03:40:09;4.65;;;1.40;;
23712;SDS011;12035;49.978;8.298;2023-12-14T03:45:08;4.28;;;1.50;;
23712;SDS011;12035;49.978;8.298;2023-12-14T03:50:06;3.00;;;1.25;;
23712;SDS011;12035;49.978;8.298;2023-12-14T03:55:07;2.70;;;1.42;;
23712;SDS011;12035;49.978;8.298;2023-12-14T04:00:05;5.97;;;1.60;;
23712;SDS011;12035;49.978;8.298;2023-12-14T04:05:06;2.42;;;1.40;;
23712;SDS011;12035;49.978;8.298;2023-12-14T04:10:05;3.78;;;1.40;;
23712;SDS011;12035;49.978;8.298;2023-12-14T04:15:03;3.00;;;1.55;;
23712;SDS011;12035;49.978;8.298;2023-12-14T04:20:04;4.60;;;2.10;;
23712;SDS011;12035;49.978;8.298;2023-12-14T04:25:02;5.60;;;1.92;;
23712;SDS011;12035;49.978;8.298;2023-12-14T04:30:00;4.78;;;1.92;;
23712;SDS011;12035;49.978;8.298;2023-12-14T04:34:59;8.23;;;2.20;;
23712;SDS011;12035;49.978;8.298;2023-12-14T04:39:58;6.15;;;1.92;;
23712;SDS011;12035;49.978;8.298;2023-12-14T04:44:55;2.78;;;1.63;;
23712;SDS011;12035;49.978;8.298;2023-12-14T04:49:52;6.60;;;2.75;;
23712;SDS011;12035;49.978;8.298;2023-12-14T04:54:49;5.78;;;2.30;;
23712;SDS011;12035;49.978;8.298;2023-12-14T04:59:47;3.92;;;1.83;;
23712;SDS011;12035;49.978;8.298;2023-12-14T05:04:44;4.10;;;1.98;;
23712;SDS011;12035;49.978;8.298;2023-12-14T05:09:41;4.28;;;1.95;;
23712;SDS011;12035;49.978;8.298;2023-12-14T05:14:38;3.85;;;2.00;;
23712;SDS011;12035;49.978;8.298;2023-12-14T05:19:36;4.65;;;2.20;;
23712;SDS011;12035;49.978;8.298;2023-12-14T05:24:33;3.92;;;1.67;;
23712;SDS011;12035;49.978;8.298;2023-12-14T05:29:30;4.55;;;1.90;;
23712;SDS011;12035;49.978;8.298;2023-12-14T05:34:28;5.22;;;2.40;;
23712;SDS011;12035;49.978;8.298;2023-12-14T05:39:26;6.57;;;2.20;;
23712;SDS011;12035;49.978;8.298;2023-12-14T05:44:24;4.05;;;2.08;;
23712;SDS011;12035;49.978;8.298;2023-12-14T05:49:21;5.85;;;2.35;;
23712;SDS011;12035;49.978;8.298;2023-12-14T05:54:18;5.20;;;2.20;;
23712;SDS011;12035;49.978;8.298;2023-12-14T05:59:17;6.93;;;3.10;;
23712;SDS011;12035;49.978;8.298;2023-12-14T06:04:14;6.15;;;3.03;;
23712;SDS011;12035;49.978;8.298;2023-12-14T06:09:11;4.90;;;2.40;;
23712;SDS011;12035;49.978;8.298;2023-12-14T06:14:08;4.50;;;2.22;;
23712;SDS011;12035;49.978;8.298;2023-12-14T06:19:07;6.80;;;3.00;;
23712;SDS011;12035;49.978;8.298;2023-12-14T06:24:04;7.13;;;3.50;;
23712;SDS011;12035;49.978;8.298;2023-12-14T06:29:01;8.18;;;4.63;;
23712;SDS011;12035;49.978;8.298;2023-12-14T06:39:00;11.25;;;4.88;;
23712;SDS011;12035;49.978;8.298;2023-12-14T06:43:58;10.95;;;5.57;;
23712;SDS011;12035;49.978;8.298;2023-12-14T06:53:52;8.37;;;5.00;;
23712;SDS011;12035;49.978;8.298;2023-12-14T06:58:50;9.90;;;5.53;;
23712;SDS011;12035;49.978;8.298;2023-12-14T07:03:47;9.15;;;5.47;;
23712;SDS011;12035;49.978;8.298;2023-12-14T07:08:44;8.35;;;5.07;;
23712;SDS011;12035;49.978;8.298;2023-12-14T07:13:42;11.02;;;5.72;;
23712;SDS011;12035;49.978;8.298;2023-12-14T07:18:42;8.10;;;5.70;;
23712;SDS011;12035;49.978;8.298;2023-12-14T07:23:39;9.90;;;6.03;;
23712;SDS011;12035;49.978;8.298;2023-12-14T07:28:36;10.75;;;7.22;;
23712;SDS011;12035;49.978;8.298;2023-12-14T07:33:33;11.52;;;8.10;;
23712;SDS011;12035;49.978;8.298;2023-12-14T07:38:32;11.98;;;8.25;;
23712;SDS011;12035;49.978;8.298;2023-12-14T07:43:29;12.05;;;7.07;;
23712;SDS011;12035;49.978;8.298;2023-12-14T07:48:26;9.93;;;5.97;;
23712;SDS011;12035;49.978;8.298;2023-12-14T07:53:24;10.93;;;6.38;;
23712;SDS011;12035;49.978;8.298;2023-12-14T07:58:23;9.25;;;6.35;;
23712;SDS011;12035;49.978;8.298;2023-12-14T08:03:21;11.30;;;6.22;;
23712;SDS011;12035;49.978;8.298;2023-12-14T08:08:18;10.13;;;6.20;;
23712;SDS011;12035;49.978;8.298;2023-12-14T08:13:15;12.30;;;6.90;;
23712;SDS011;12035;49.978;8.298;2023-12-14T08:18:13;10.75;;;6.70;;
23712;SDS011;12035;49.978;8.298;2023-12-14T08:23:10;13.25;;;6.55;;
23712;SDS011;12035;49.978;8.298;2023-12-14T08:28:07;11.70;;;6.40;;
23712;SDS011;12035;49.978;8.298;2023-12-14T08:33:05;12.57;;;7.47;;
23712;SDS011;12035;49.978;8.298;2023-12-14T08:43:00;10.90;;;6.43;;
23712;SDS011;12035;49.978;8.298;2023-12-14T08:47:58;13.57;;;6.50;;
23712;SDS011;12035;49.978;8.298;2023-12-14T08:52:55;9.65;;;6.97;;
23712;SDS011;12035;49.978;8.298;2023-12-14T08:57:55;12.60;;;6.70;;
23712;SDS011;12035;49.978;8.298;2023-12-14T09:02:52;12.82;;;6.28;;
23712;SDS011;12035;49.978;8.298;2023-12-14T09:07:49;8.18;;;5.18;;
23712;SDS011;12035;49.978;8.298;2023-12-14T09:12:49;8.82;;;5.50;;
23712;SDS011;12035;49.978;8.298;2023-12-14T09:22:44;8.63;;;4.80;;
23712;SDS011;12035;49.978;8.298;2023-12-14T09:27:41;6.70;;;4.18;;
23712;SDS011;12035;49.978;8.298;2023-12-14T09:32:38;8.65;;;4.38;;
23712;SDS011;12035;49.978;8.298;2023-12-14T09:37:37;6.32;;;3.80;;
23712;SDS011;12035;49.978;8.298;2023-12-14T09:42:36;6.88;;;3.95;;
23712;SDS011;12035;49.978;8.298;2023-12-14T09:47:34;6.07;;;3.55;;
23712;SDS011;12035;49.978;8.298;2023-12-14T09:52:32;6.10;;;3.65;;
23712;SDS011;12035;49.978;8.298;2023-12-14T09:57:30;5.50;;;3.35;;
23712;SDS011;12035;49.978;8.298;2023-12-14T10:02:28;6.68;;;3.75;;
23712;SDS011;12035;49.978;8.298;2023-12-14T10:07:25;5.95;;;4.13;;
23712;SDS011;12035;49.978;8.298;2023-12-14T10:12:21;7.65;;;3.85;;
23712;SDS011;12035;49.978;8.298;2023-12-14T10:17:21;7.10;;;4.25;;
23712;SDS011;12035;49.978;8.298;2023-12-14T10:27:27;5.55;;;3.70;;
23712;SDS011;12035;49.978;8.298;2023-12-14T10:32:25;5.97;;;3.85;;
23712;SDS011;12035;49.978;8.298;2023-12-14T10:37:23;5.35;;;3.22;;
23712;SDS011;12035;49.978;8.298;2023-12-14T10:42:22;5.28;;;3.33;;
23712;SDS011;12035;49.978;8.298;2023-12-14T10:47:23;5.78;;;3.72;;
23712;SDS011;12035;49.978;8.298;2023-12-14T10:52:21;4.88;;;3.25;;
23712;SDS011;12035;49.978;8.298;2023-12-14T10:57:19;4.47;;;3.08;;
23712;SDS011;12035;49.978;8.298;2023-12-14T11:02:17;7.72;;;2.90;;
23712;SDS011;12035;49.978;8.298;2023-12-14T11:07:14;4.53;;;3.17;;
23712;SDS011;12035;49.978;8.298;2023-12-14T11:12:13;5.60;;;3.08;;
23712;SDS011;12035;49.978;8.298;2023-12-14T11:17:15;4.75;;;3.28;;
23712;SDS011;12035;49.978;8.298;2023-12-14T11:22:13;5.07;;;3.45;;
23712;SDS011;12035;49.978;8.298;2023-12-14T11:27:29;6.32;;;4.30;;
23712;SDS011;12035;49.978;8.298;2023-12-14T11:32:27;6.05;;;3.92;;
23712;SDS011;12035;49.978;8.298;2023-12-14T11:37:25;6.85;;;3.90;;
23712;SDS011;12035;49.978;8.298;2023-12-14T11:42:23;5.97;;;4.03;;
23712;SDS011;12035;49.978;8.298;2023-12-14T11:47:22;9.82;;;4.32;;
23712;SDS011;12035;49.978;8.298;2023-12-14T11:52:19;7.57;;;4.78;;
23712;SDS011;12035;49.978;8.298;2023-12-14T11:57:18;9.27;;;4.80;;
23712;SDS011;12035;49.978;8.298;2023-12-14T12:02:22;9.80;;;6.10;;
23712;SDS011;12035;49.978;8.298;2023-12-14T12:07:21;10.65;;;6.43;;
23712;SDS011;12035;49.978;8.298;2023-12-14T12:12:18;9.00;;;5.30;;
23712;SDS011;12035;49.978;8.298;2023-12-14T12:17:15;8.35;;;5.80;;
23712;SDS011;12035;49.978;8.298;2023-12-14T12:22:16;9.15;;;5.80;;
23712;SDS011;12035;49.978;8.298;2023-12-14T12:27:13;10.23;;;5.28;;
23712;SDS011;12035;49.978;8.298;2023-12-14T12:37:07;5.43;;;3.60;;
23712;SDS011;12035;49.978;8.298;2023-12-14T12:42:05;5.72;;;3.60;;
23712;SDS011;12035;49.978;8.298;2023-12-14T12:47:02;6.43;;;3.95;;
23712;SDS011;12035;49.978;8.298;2023-12-14T12:52:00;6.15;;;3.70;;
23712;SDS011;12035;49.978;8.298;2023-12-14T12:56:58;6.10;;;3.78;;
23712;SDS011;12035;49.978;8.298;2023-12-14T13:01:56;8.25;;;4.25;;
23712;SDS011;12035;49.978;8.298;2023-12-14T13:06:53;6.85;;;4.07;;
23712;SDS011;12035;49.978;8.298;2023-12-14T13:11:50;7.43;;;4.35;;
23712;SDS011;12035;49.978;8.298;2023-12-14T13:16:47;7.40;;;4.75;;
23712;SDS011;12035;49.978;8.298;2023-12-14T13:21:46;8.43;;;4.97;;
23712;SDS011;12035;49.978;8.298;2023-12-14T13:26:43;8.45;;;4.53;;
23712;SDS011;12035;49.978;8.298;2023-12-14T13:31:40;7.43;;;4.18;;
23712;SDS011;12035;49.978;8.298;2023-12-14T13:36:37;7.05;;;4.03;;
23712;SDS011;12035;49.978;8.298;2023-12-14T13:41:35;6.00;;;3.60;;
23712;SDS011;12035;49.978;8.298;2023-12-14T13:46:33;5.70;;;3.65;;
23712;SDS011;12035;49.978;8.298;2023-12-14T13:51:30;7.68;;;3.17;;
23712;SDS011;12035;49.978;8.298;2023-12-14T13:56:27;4.97;;;3.03;;
23712;SDS011;12035;49.978;8.298;2023-12-14T14:01:25;4.40;;;2.53;;
23712;SDS011;12035;49.978;8.298;2023-12-14T14:06:22;4.43;;;2.58;;
23712;SDS011;12035;49.978;8.298;2023-12-14T14:11:19;4.90;;;2.85;;
23712;SDS011;12035;49.978;8.298;2023-12-14T14:16:17;4.07;;;2.60;;
23712;SDS011;12035;49.978;8.298;2023-12-14T14:21:15;4.07;;;2.28;;
23712;SDS011;12035;49.978;8.298;2023-12-14T14:26:13;3.17;;;1.88;;
23712;SDS011;12035;49.978;8.298;2023-12-14T14:31:10;3.20;;;2.00;;
23712;SDS011;12035;49.978;8.298;2023-12-14T14:36:07;2.10;;;1.40;;
23712;SDS011;12035;49.978;8.298;2023-12-14T14:41:07;4.05;;;1.70;;
23712;SDS011;12035;49.978;8.298;2023-12-14T14:46:04;4.10;;;1.48;;
23712;SDS011;12035;49.978;8.298;2023-12-14T14:51:01;5.60;;;1.50;;
23712;SDS011;12035;49.978;8.298;2023-12-14T14:55:58;2.40;;;1.30;;
23712;SDS011;12035;49.978;8.298;2023-12-14T15:00:56;2.25;;;1.20;;
23712;SDS011;12035;49.978;8.298;2023-12-14T15:05:53;2.55;;;1.20;;
23712;SDS011;12035;49.978;8.298;2023-12-14T15:10:50;3.15;;;1.40;;
23712;SDS011;12035;49.978;8.298;2023-12-14T15:15:47;2.10;;;1.20;;
23712;SDS011;12035;49.978;8.298;2023-12-14T15:20:46;6.50;;;1.70;;
23712;SDS011;12035;49.978;8.298;2023-12-14T15:25:43;3.95;;;2.17;;
23712;SDS011;12035;49.978;8.298;2023-12-14T15:35:37;3.23;;;2.10;;
23712;SDS011;12035;49.978;8.298;2023-12-14T15:45:33;3.03;;;1.98;;
23712;SDS011;12035;49.978;8.298;2023-12-14T15:55:26;3.00;;;1.83;;
23712;SDS011;12035;49.978;8.298;2023-12-14T16:00:25;3.58;;;1.98;;
23712;SDS011;12035;49.978;8.298;2023-12-14T16:05:22;3.33;;;1.92;;
23712;SDS011;12035;49.978;8.298;2023-12-14T16:10:19;4.55;;;2.65;;
23712;SDS011;12035;49.978;8.298;2023-12-14T16:20:15;5.20;;;2.00;;
23712;SDS011;12035;49.978;8.298;2023-12-14T16:25:13;3.38;;;2.00;;
23712;SDS011;12035;49.978;8.298;2023-12-14T16:30:10;2.42;;;1.48;;
23712;SDS011;12035;49.978;8.298;2023-12-14T16:35:08;2.40;;;1.40;;
23712;SDS011;12035;49.978;8.298;2023-12-14T16:40:07;2.45;;;1.50;;
23712;SDS011;12035;49.978;8.298;2023-12-14T16:45:05;2.80;;;1.25;;
23712;SDS011;12035;49.978;8.298;2023-12-14T16:50:04;6.50;;;3.28;;
23712;SDS011;12035;49.978;8.298;2023-12-14T16:55:04;3.25;;;2.15;;
23712;SDS011;12035;49.978;8.298;2023-12-14T17:00:04;2.85;;;1.67;;
23712;SDS011;12035;49.978;8.298;2023-12-14T17:05:02;3.17;;;1.92;;
23712;SDS011;12035;49.978;8.298;2023-12-14T17:10:01;3.75;;;2.53;;
23712;SDS011;12035;49.978;8.298;2023-12-14T17:14:59;3.38;;;2.13;;
23712;SDS011;12035;49.978;8.298;2023-12-14T17:19:56;3.42;;;2.30;;
23712;SDS011;12035;49.978;8.298;2023-12-14T17:24:53;4.38;;;2.40;;
23712;SDS011;12035;49.978;8.298;2023-12-14T17:34:48;3.17;;;2.13;;
23712;SDS011;12035;49.978;8.298;2023-12-14T17:39:45;3.72;;;2.25;;
23712;SDS011;12035;49.978;8.298;2023-12-14T17:49:39;4.47;;;2.60;;
23712;SDS011;12035;49.978;8.298;2023-12-14T17:54:37;4.00;;;2.70;;
23712;SDS011;12035;49.978;8.298;2023-12-14T17:59:35;4.50;;;2.60;;
23712;SDS011;12035;49.978;8.298;2023-12-14T18:04:32;4.68;;;3.08;;
23712;SDS011;12035;49.978;8.298;2023-12-14T18:14:27;4.90;;;2.73;;
23712;SDS011;12035;49.978;8.298;2023-12-14T18:19:24;4.25;;;2.53;;
23712;SDS011;12035;49.978;8.298;2023-12-14T18:24:22;5.25;;;2.83;;
23712;SDS011;12035;49.978;8.298;2023-12-14T18:29:19;5.13;;;3.15;;
23712;SDS011;12035;49.978;8.298;2023-12-14T18:39:14;9.43;;;4.68;;
23712;SDS011;12035;49.978;8.298;2023-12-14T18:44:11;6.68;;;3.83;;
23712;SDS011;12035;49.978;8.298;2023-12-14T18:49:08;6.88;;;4.20;;
23712;SDS011;12035;49.978;8.298;2023-12-14T18:54:08;8.50;;;4.68;;
23712;SDS011;12035;49.978;8.298;2023-12-14T18:59:06;9.30;;;5.40;;
23712;SDS011;12035;49.978;8.298;2023-12-14T19:04:03;6.90;;;4.35;;
23712;SDS011;12035;49.978;8.298;2023-12-14T19:09:00;8.55;;;4.63;;
23712;SDS011;12035;49.978;8.298;2023-12-14T19:13:59;8.18;;;4.70;;
23712;SDS011;12035;49.978;8.298;2023-12-14T19:18:56;9.98;;;5.15;;
23712;SDS011;12035;49.978;8.298;2023-12-14T19:23:53;7.32;;;4.47;;
23712;SDS011;12035;49.978;8.298;2023-12-14T19:28:50;6.88;;;4.40;;
23712;SDS011;12035;49.978;8.298;2023-12-14T19:33:50;9.35;;;4.75;;
23712;SDS011;12035;49.978;8.298;2023-12-14T19:38:47;8.00;;;5.00;;
23712;SDS011;12035;49.978;8.298;2023-12-14T19:43:47;8.80;;;4.28;;
23712;SDS011;12035;49.978;8.298;2023-12-14T19:48:44;6.38;;;4.03;;
23712;SDS011;12035;49.978;8.298;2023-12-14T19:53:42;6.30;;;3.50;;
23712;SDS011;12035;49.978;8.298;2023-12-14T19:58:39;5.63;;;3.17;;
23712;SDS011;12035;49.978;8.298;2023-12-14T20:03:36;5.60;;;3.20;;
23712;SDS011;12035;49.978;8.298;2023-12-14T20:08:33;5.55;;;3.30;;
23712;SDS011;12035;49.978;8.298;2023-12-14T20:13:32;6.78;;;3.80;;
23712;SDS011;12035;49.978;8.298;2023-12-14T20:18:29;6.13;;;3.80;;
23712;SDS011;12035;49.978;8.298;2023-12-14T20:23:26;5.55;;;3.33;;
23712;SDS011;12035;49.978;8.298;2023-12-14T20:28:23;5.47;;;3.30;;
23712;SDS011;12035;49.978;8.298;2023-12-14T20:33:21;5.45;;;3.38;;
23712;SDS011;12035;49.978;8.298;2023-12-14T20:38:18;6.10;;;3.38;;
23712;SDS011;12035;49.978;8.298;2023-12-14T20:48:12;6.17;;;3.57;;
23712;SDS011;12035;49.978;8.298;2023-12-14T20:53:10;5.32;;;3.13;;
23712;SDS011;12035;49.978;8.298;2023-12-14T20:58:07;5.43;;;3.35;;
23712;SDS011;12035;49.978;8.298;2023-12-14T21:03:06;6.63;;;3.67;;
23712;SDS011;12035;49.978;8.298;2023-12-14T21:08:03;7.75;;;4.68;;
23712;SDS011;12035;49.978;8.298;2023-12-14T21:13:02;7.55;;;4.90;;
23712;SDS011;12035;49.978;8.298;2023-12-14T21:17:59;8.98;;;5.60;;
23712;SDS011;12035;49.978;8.298;2023-12-14T21:22:56;10.00;;;5.85;;
23712;SDS011;12035;49.978;8.298;2023-12-14T21:27:53;8.73;;;5.43;;
23712;SDS011;12035;49.978;8.298;2023-12-14T21:32:53;8.77;;;4.60;;
23712;SDS011;12035;49.978;8.298;2023-12-14T21:37:50;8.05;;;4.85;;
23712;SDS011;12035;49.978;8.298;2023-12-14T21:42:47;11.13;;;6.20;;
23712;SDS011;12035;49.978;8.298;2023-12-14T21:52:42;13.87;;;7.03;;
23712;SDS011;12035;49.978;8.298;2023-12-14T21:57:39;8.65;;;5.55;;
